Time;durP1;ratioP1;P1;durP2;ratioP2;P2;SDS_P1;SDS_P2;PMS_P1;PMS_P2;Temp;Humidity;BMP_temperature;BMP_pressure;BME280_temperature;BME280_humidity;BME280_pressure;Samples;Min_cycle;Max_cycle;Signal;HPM_P1;HPM_P2
2024/01/31 00:00:41;;;;;;;0.30;0.20;;;;;;;3.27;42.44;96899.97;5092986;28;20462;-57
2024/01/31 00:03:10;;;;;;;0.40;0.27;;;;;;;3.30;42.44;96922.34;5092951;28;20440;-56
2024/01/31 00:05:40;;;;;;;0.30;0.20;;;;;;;3.40;44.12;96915.00;5093046;28;20506;-56
2024/01/31 00:08:08;;;;;;;0.30;0.17;;;;;;;3.88;43.53;96910.84;5092831;28;20527;-56
2024/01/31 00:10:37;;;;;;;0.30;0.20;;;;;;;3.79;42.33;96915.44;5092840;28;20440;-57
2024/01/31 00:13:05;;;;;;;0.33;0.30;;;;;;;3.25;42.21;96922.91;5092327;28;20479;-56
2024/01/31 00:15:34;;;;;;;0.30;0.20;;;;;;;2.76;42.10;96895.72;5093035;28;20527;-57
2024/01/31 00:18:03;;;;;;;0.30;0.20;;;;;;;3.23;42.42;96922.31;5092513;28;20528;-58
2024/01/31 00:20:31;;;;;;;0.40;0.30;;;;;;;2.58;44.36;96929.31;5092489;28;20898;-57
2024/01/31 00:23:01;;;;;;;0.50;0.50;;;;;;;1.64;48.14;96933.25;5092497;28;20812;-57
2024/01/31 00:25:30;;;;;;;1.37;1.27;;;;;;;1.27;49.84;96927.91;5092761;28;20868;-57
2024/01/31 00:27:59;;;;;;;1.13;0.43;;;;;;;0.75;51.68;96932.06;5091709;28;20450;-57
2024/01/31 00:30:28;;;;;;;0.40;0.37;;;;;;;0.76;51.41;96924.06;5092064;28;20440;-57
2024/01/31 00:32:57;;;;;;;0.80;0.80;;;;;;;0.90;51.19;96941.66;5092699;28;20857;-56
2024/01/31 00:35:25;;;;;;;0.50;0.40;;;;;;;0.89;51.63;96940.00;5091835;28;20443;-57
2024/01/31 00:37:55;;;;;;;0.97;0.97;;;;;;;1.13;50.98;96941.72;5092128;28;20449;-57
2024/01/31 00:40:24;;;;;;;0.40;0.37;;;;;;;1.55;50.06;96939.50;5092350;28;20519;-57
2024/01/31 00:42:53;;;;;;;0.57;0.30;;;;;;;2.23;49.35;96936.00;5089884;28;20436;-56
2024/01/31 00:45:22;;;;;;;0.50;0.43;;;;;;;2.66;48.42;96932.63;5092231;28;20489;-57
2024/01/31 00:47:50;;;;;;;0.70;0.50;;;;;;;2.68;47.52;96941.13;5092199;28;20424;-56
2024/01/31 00:50:19;;;;;;;0.67;0.50;;;;;;;2.76;48.35;96927.16;5091863;28;20444;-56
2024/01/31 00:52:48;;;;;;;0.70;0.40;;;;;;;2.85;51.00;96931.28;5091962;28;20549;-57
2024/01/31 00:55:16;;;;;;;0.97;0.37;;;;;;;2.80;49.48;96931.84;5090912;28;20518;-56
2024/01/31 00:57:47;;;;;;;0.30;0.20;;;;;;;2.81;47.92;96925.59;5091891;28;20452;-56
2024/01/31 01:00:17;;;;;;;0.70;0.50;;;;;;;2.75;47.39;96925.50;5092043;28;20444;-56
2024/01/31 01:02:46;;;;;;;0.83;0.60;;;;;;;2.80;47.53;96925.78;5092300;28;20531;-56
2024/01/31 01:05:14;;;;;;;1.27;0.73;;;;;;;2.15;48.08;96915.97;5091634;28;20448;-56
2024/01/31 01:07:45;;;;;;;0.50;0.50;;;;;;;2.46;48.17;96924.50;5092038;28;20440;-56
2024/01/31 01:10:14;;;;;;;0.30;0.20;;;;;;;2.56;47.28;96922.44;5090524;28;20443;-56
2024/01/31 01:12:43;;;;;;;1.50;0.77;;;;;;;2.41;48.10;96882.38;5091216;28;20563;-56
2024/01/31 01:15:18;;;;;;;0.30;0.30;;;;;;;2.70;47.32;96914.78;5091500;28;20432;-56
2024/01/31 01:17:46;;;;;;;3.20;0.57;;;;;;;2.16;47.79;96920.22;5091817;28;20514;-56
2024/01/31 01:20:15;;;;;;;0.60;0.60;;;;;;;1.52;49.31;96931.22;5091051;28;20960;-57
2024/01/31 01:22:44;;;;;;;1.00;0.80;;;;;;;0.28;52.51;96927.63;5091549;28;20444;-56
2024/01/31 01:25:13;;;;;;;3.73;1.00;;;;;;;-0.18;53.17;96879.63;5091988;28;20505;-56
2024/01/31 01:27:45;;;;;;;0.80;0.50;;;;;;;0.16;53.75;96954.19;5091197;28;20464;-56
2024/01/31 01:30:15;;;;;;;1.03;0.70;;;;;;;1.05;51.90;96919.06;5091871;28;20436;-57
2024/01/31 01:32:44;;;;;;;0.30;0.20;;;;;;;1.51;50.33;96929.56;5091344;28;20490;-56
2024/01/31 01:35:13;;;;;;;0.80;0.43;;;;;;;1.39;50.45;96916.09;5092016;28;20793;-57
2024/01/31 01:37:42;;;;;;;0.60;0.30;;;;;;;1.70;49.85;96923.88;5091124;28;20518;-57
2024/01/31 01:40:11;;;;;;;0.30;0.20;;;;;;;1.97;50.15;96922.53;5091700;28;20432;-57
2024/01/31 01:42:40;;;;;;;0.30;0.30;;;;;;;2.04;50.42;96926.88;5090975;28;20479;-56
2024/01/31 01:45:10;;;;;;;2.73;0.40;;;;;;;1.67;50.19;96908.56;5090940;28;20437;-56
2024/01/31 01:47:42;;;;;;;0.50;0.50;;;;;;;1.51;51.18;96859.03;5085063;28;20532;-56
2024/01/31 01:50:12;;;;;;;0.70;0.70;;;;;;;2.16;53.59;96906.31;5094893;28;20436;-56
2024/01/31 01:52:41;;;;;;;0.40;0.33;;;;;;;2.40;54.72;96914.75;5094657;28;20475;-56
2024/01/31 01:55:11;;;;;;;0.30;0.30;;;;;;;2.50;52.67;96910.06;5094565;28;20475;-56
2024/01/31 01:57:40;;;;;;;2.13;0.97;;;;;;;2.25;49.49;96900.03;5068730;28;20432;-56
2024/01/31 02:00:11;;;;;;;1.60;0.70;;;;;;;2.21;50.86;96911.84;5094278;28;20523;-56
2024/01/31 02:02:41;;;;;;;1.03;0.30;;;;;;;2.38;51.38;96898.41;5095764;28;20443;-57
2024/01/31 02:05:10;;;;;;;2.07;0.33;;;;;;;2.49;50.82;96900.59;5094892;28;20468;-57
2024/01/31 02:07:40;;;;;;;2.10;0.27;;;;;;;2.43;50.45;96887.41;5095564;28;20444;-57
2024/01/31 02:10:09;;;;;;;0.60;0.40;;;;;;;1.31;50.18;96899.66;5095263;28;20451;-57
2024/01/31 02:12:38;;;;;;;2.83;0.43;;;;;;;1.64;51.94;96888.00;5095356;28;20436;-57
2024/01/31 02:15:08;;;;;;;0.40;0.40;;;;;;;1.68;52.17;96826.53;5094918;28;20805;-56
2024/01/31 02:17:36;;;;;;;0.40;0.40;;;;;;;1.79;53.87;96875.78;5094951;28;20521;-57
2024/01/31 02:20:08;;;;;;;1.03;1.03;;;;;;;2.09;51.77;96877.47;5094700;28;20970;-57
2024/01/31 02:22:38;;;;;;;0.40;0.40;;;;;;;2.25;51.66;96881.72;5095626;28;20451;-57
2024/01/31 02:25:13;;;;;;;0.30;0.30;;;;;;;2.50;52.79;96881.28;5094872;28;20501;-57
2024/01/31 02:27:42;;;;;;;0.30;0.23;;;;;;;2.45;50.65;96873.16;5095140;28;20446;-56
2024/01/31 02:30:11;;;;;;;0.30;0.20;;;;;;;2.46;50.87;96869.56;5095260;28;20440;-56
2024/01/31 02:32:40;;;;;;;0.20;0.20;;;;;;;2.21;49.68;96868.19;5093353;28;20436;-56
2024/01/31 02:35:09;;;;;;;0.30;0.23;;;;;;;2.19;50.34;96866.75;5095003;28;20471;-57
2024/01/31 02:37:43;;;;;;;0.53;0.40;;;;;;;1.69;49.41;96788.97;5094150;28;20844;-57
2024/01/31 02:40:12;;;;;;;0.60;0.60;;;;;;;2.28;50.01;96866.47;5094810;28;20432;-57
2024/01/31 02:42:41;;;;;;;0.43;0.37;;;;;;;2.27;49.46;96874.50;5094424;28;20527;-57
2024/01/31 02:45:10;;;;;;;0.37;0.30;;;;;;;2.24;49.99;96867.84;5094851;28;20440;-57
2024/01/31 02:47:39;;;;;;;0.30;0.20;;;;;;;1.94;50.59;96845.25;5094656;28;20948;-57
2024/01/31 02:50:08;;;;;;;0.60;0.57;;;;;;;1.36;50.89;96855.53;5094639;28;20979;-57
2024/01/31 02:52:37;;;;;;;0.70;0.30;;;;;;;1.93;50.70;96867.16;5094036;28;20436;-57
2024/01/31 02:55:08;;;;;;;0.57;0.43;;;;;;;1.84;49.08;96865.59;5093337;28;20525;-56
2024/01/31 02:57:37;;;;;;;0.37;0.20;;;;;;;1.94;49.47;96881.88;5093966;28;20444;-56
2024/01/31 03:00:11;;;;;;;0.30;0.30;;;;;;;1.11;49.66;96881.81;5093568;28;20443;-56
2024/01/31 03:02:42;;;;;;;0.40;0.30;;;;;;;1.11;51.59;96860.91;5094240;28;20441;-56
2024/01/31 03:05:11;;;;;;;0.50;0.43;;;;;;;1.23;50.57;96882.25;5093746;28;21544;-55
2024/01/31 03:07:41;;;;;;;2.43;0.90;;;;;;;1.27;50.22;96870.44;5093916;28;20490;-57
2024/01/31 03:10:11;;;;;;;0.70;0.40;;;;;;;1.47;50.90;96873.44;5094166;28;20437;-56
2024/01/31 03:12:40;;;;;;;0.37;0.37;;;;;;;1.23;49.67;96883.06;5094037;28;20446;-56
2024/01/31 03:15:09;;;;;;;1.27;0.87;;;;;;;1.32;50.73;96869.94;5093767;28;20484;-57
2024/01/31 03:17:38;;;;;;;0.50;0.50;;;;;;;0.48;50.32;96742.91;5093899;28;20436;-56
2024/01/31 03:20:07;;;;;;;0.30;0.30;;;;;;;1.05;50.46;96882.50;5093972;28;20550;-56
2024/01/31 03:22:36;;;;;;;0.60;0.57;;;;;;;1.24;51.15;96879.44;5094207;28;20443;-57
2024/01/31 03:25:06;;;;;;;7.63;0.80;;;;;;;1.27;51.37;96892.16;5093923;28;20455;-57
2024/01/31 03:27:36;;;;;;;0.70;0.30;;;;;;;1.21;51.30;96886.81;5094047;28;20452;-57
2024/01/31 03:30:06;;;;;;;0.83;0.70;;;;;;;0.49;50.71;96807.09;5085682;28;20441;-56
2024/01/31 03:32:37;;;;;;;2.97;1.10;;;;;;;0.66;51.80;96894.75;5089408;28;20976;-57
2024/01/31 03:35:07;;;;;;;0.27;0.20;;;;;;;0.50;52.02;96898.25;5093301;28;20471;-57
2024/01/31 03:37:36;;;;;;;0.40;0.30;;;;;;;0.78;51.37;96887.38;5093555;28;20863;-57
2024/01/31 03:40:06;;;;;;;2.60;0.60;;;;;;;0.89;50.91;96886.97;5093969;28;20795;-57
2024/01/31 03:42:36;;;;;;;0.50;0.33;;;;;;;1.20;50.63;96891.22;5093452;28;20428;-57
2024/01/31 03:45:06;;;;;;;0.50;0.50;;;;;;;1.24;50.08;96889.88;5092700;28;20494;-56
2024/01/31 03:47:35;;;;;;;0.90;0.57;;;;;;;1.33;50.50;96890.66;5093146;28;20924;-57
2024/01/31 03:50:05;;;;;;;0.40;0.30;;;;;;;1.45;51.97;96880.63;5093845;28;20448;-57
2024/01/31 03:52:35;;;;;;;0.50;0.47;;;;;;;1.63;54.60;96881.13;5093203;28;20982;-57
2024/01/31 03:55:06;;;;;;;0.30;0.30;;;;;;;1.66;51.47;96886.00;5093253;28;20514;-57
2024/01/31 03:57:37;;;;;;;4.37;1.13;;;;;;;1.45;51.09;96870.97;5093432;28;20433;-57
2024/01/31 04:00:09;;;;;;;2.03;1.00;;;;;;;1.04;49.53;96844.31;5093118;28;20497;-56
2024/01/31 04:02:38;;;;;;;2.93;0.57;;;;;;;1.51;50.29;96882.53;5093453;28;20436;-57
2024/01/31 04:05:10;;;;;;;0.20;0.20;;;;;;;1.66;52.31;96881.59;5092874;28;20437;-57
2024/01/31 04:07:40;;;;;;;1.00;1.00;;;;;;;1.24;51.14;96884.66;5093334;28;20464;-57
2024/01/31 04:10:14;;;;;;;0.60;0.40;;;;;;;1.45;51.31;96872.78;5092456;28;20497;-57
2024/01/31 04:12:45;;;;;;;0.30;0.20;;;;;;;1.44;48.53;96876.38;5092835;28;20440;-57
2024/01/31 04:15:14;;;;;;;0.40;0.30;;;;;;;1.26;48.64;96889.72;5091989;28;21490;-56
2024/01/31 04:17:42;;;;;;;0.80;0.30;;;;;;;1.35;48.57;96882.63;5093002;28;20467;-56
2024/01/31 04:20:12;;;;;;;0.47;0.40;;;;;;;1.29;47.81;96879.72;5082302;28;20444;-57
2024/01/31 04:22:41;;;;;;;0.90;0.90;;;;;;;0.69;48.81;96834.41;5092876;28;20854;-56
2024/01/31 04:25:10;;;;;;;0.53;0.30;;;;;;;0.90;49.81;96892.06;5085915;28;20445;-57
2024/01/31 04:27:39;;;;;;;0.60;0.60;;;;;;;0.98;49.50;96881.56;5092650;28;20437;-58
2024/01/31 04:30:12;;;;;;;0.53;0.40;;;;;;;0.58;50.08;96892.97;5091986;28;20804;-57
2024/01/31 04:32:41;;;;;;;0.50;0.40;;;;;;;0.83;50.82;96883.28;5092707;28;20440;-58
2024/01/31 04:35:10;;;;;;;1.13;0.30;;;;;;;1.22;49.48;96891.03;5092401;28;20988;-57
2024/01/31 04:37:38;;;;;;;0.80;0.80;;;;;;;1.29;49.02;96890.19;5092676;28;20498;-58
2024/01/31 04:40:08;;;;;;;0.70;0.40;;;;;;;1.21;51.78;96886.81;5092192;28;20437;-57
2024/01/31 04:42:38;;;;;;;1.47;0.40;;;;;;;1.34;51.80;96888.88;5091946;28;20531;-57
2024/01/31 04:45:09;;;;;;;0.43;0.43;;;;;;;1.26;50.73;96884.50;5091906;28;20462;-57
2024/01/31 04:47:39;;;;;;;2.57;0.20;;;;;;;1.33;52.70;96889.84;5091836;28;20436;-58
2024/01/31 04:50:09;;;;;;;0.53;0.50;;;;;;;1.12;50.93;96886.06;5091587;28;20463;-57
2024/01/31 04:52:37;;;;;;;0.50;0.40;;;;;;;1.34;51.96;96886.25;5091600;28;20433;-56
2024/01/31 04:55:07;;;;;;;1.43;1.33;;;;;;;1.20;50.34;96886.00;5091311;28;20546;-57
2024/01/31 04:57:36;;;;;;;0.50;0.50;;;;;;;1.16;49.00;96869.03;5091817;28;20440;-57
2024/01/31 05:00:06;;;;;;;0.60;0.60;;;;;;;1.09;49.72;96893.41;5091551;28;20439;-57
2024/01/31 05:02:35;;;;;;;3.13;0.80;;;;;;;1.07;49.24;96890.97;5066684;28;20448;-58
2024/01/31 05:05:05;;;;;;;0.63;0.30;;;;;;;1.08;49.83;96895.22;5091514;28;20960;-56
2024/01/31 05:07:34;;;;;;;0.40;0.40;;;;;;;0.28;51.32;96904.16;5092108;28;20966;-57
2024/01/31 05:10:04;;;;;;;1.13;1.10;;;;;;;0.25;52.32;96898.47;5091578;28;20455;-57
2024/01/31 05:12:33;;;;;;;1.87;0.70;;;;;;;-0.18;53.04;96913.50;5091711;28;20483;-58
2024/01/31 05:15:02;;;;;;;1.23;0.57;;;;;;;-0.14;53.71;96904.41;5091440;28;20563;-57
2024/01/31 05:17:30;;;;;;;1.70;1.43;;;;;;;-0.22;53.89;96914.00;5092038;28;20437;-57
2024/01/31 05:20:00;;;;;;;1.13;1.10;;;;;;;-0.37;53.95;96900.81;5091673;28;20497;-56
2024/01/31 05:22:30;;;;;;;0.40;0.30;;;;;;;-0.54;54.96;96913.97;5091112;28;20444;-57
2024/01/31 05:24:58;;;;;;;0.80;0.80;;;;;;;-0.79;55.06;96915.75;5091588;28;20444;-55
2024/01/31 05:27:27;;;;;;;0.50;0.40;;;;;;;-1.04;56.23;96921.88;5092047;28;20440;-57
2024/01/31 05:29:55;;;;;;;4.23;0.83;;;;;;;-0.90;56.06;96926.44;5091782;28;20527;-57
2024/01/31 05:32:24;;;;;;;6.80;2.60;;;;;;;-0.76;55.25;96929.25;5091690;28;20436;-58
2024/01/31 05:34:53;;;;;;;0.47;0.47;;;;;;;-0.71;56.01;96926.19;5091491;28;20559;-58
2024/01/31 05:37:22;;;;;;;1.20;0.50;;;;;;;-0.63;55.21;96933.97;5091063;28;20998;-58
2024/01/31 05:39:52;;;;;;;2.00;0.40;;;;;;;-0.74;55.36;96929.91;5091428;28;20436;-58
2024/01/31 05:42:21;;;;;;;0.53;0.53;;;;;;;-0.94;56.03;96925.16;5091232;28;20436;-57
2024/01/31 05:44:53;;;;;;;2.10;2.00;;;;;;;-0.82;55.70;96940.31;5091619;28;20437;-57
2024/01/31 05:47:22;;;;;;;0.30;0.30;;;;;;;-0.78;55.70;96930.38;5090980;28;20454;-58
2024/01/31 05:49:51;;;;;;;1.47;0.40;;;;;;;-0.70;55.84;96940.81;5091367;28;20463;-58
2024/01/31 05:52:19;;;;;;;1.20;0.53;;;;;;;-0.80;55.55;96932.31;5090802;28;20469;-58
2024/01/31 05:54:48;;;;;;;0.90;0.40;;;;;;;-0.74;55.84;96939.50;5090893;28;20544;-58
2024/01/31 05:57:18;;;;;;;0.30;0.30;;;;;;;-0.85;55.83;96932.81;5090631;28;20943;-58
2024/01/31 05:59:47;;;;;;;1.20;1.17;;;;;;;-1.12;56.29;96940.03;5091583;28;20853;-58
2024/01/31 06:02:15;;;;;;;2.00;1.10;;;;;;;-0.91;55.93;96943.84;5090528;28;20519;-58
2024/01/31 06:04:44;;;;;;;0.90;0.90;;;;;;;-0.47;54.94;96930.59;5091322;28;20444;-58
2024/01/31 06:07:13;;;;;;;1.27;0.60;;;;;;;-0.46;54.01;96909.63;5090749;28;20440;-58
2024/01/31 06:09:44;;;;;;;0.53;0.50;;;;;;;-0.36;54.31;96946.75;5091121;28;20463;-58
2024/01/31 06:12:12;;;;;;;0.87;0.80;;;;;;;-0.34;53.89;96950.00;5084781;28;20532;-57
2024/01/31 06:14:42;;;;;;;0.63;0.63;;;;;;;-0.23;54.39;96946.25;5084385;28;20447;-56
2024/01/31 06:17:14;;;;;;;3.50;1.03;;;;;;;-0.03;53.79;96939.75;5090682;28;20446;-58
2024/01/31 06:19:42;;;;;;;3.07;0.80;;;;;;;0.16;54.63;96942.00;5091366;28;20438;-58
2024/01/31 06:22:11;;;;;;;1.13;1.13;;;;;;;0.73;52.15;96944.47;5091157;28;20490;-59
2024/01/31 06:24:40;;;;;;;1.10;1.10;;;;;;;0.83;51.87;96937.28;5090586;28;21016;-58
2024/01/31 06:27:09;;;;;;;2.40;1.20;;;;;;;0.93;51.75;96940.50;5091312;28;20524;-58
2024/01/31 06:29:40;;;;;;;2.07;1.97;;;;;;;1.07;51.21;96943.19;5090326;28;20440;-58
2024/01/31 06:32:10;;;;;;;3.60;1.00;;;;;;;1.37;51.01;96943.38;5090657;28;20440;-58
2024/01/31 06:34:39;;;;;;;9.13;2.97;;;;;;;1.79;50.22;96933.28;5092658;28;20527;-58
2024/01/31 06:37:08;;;;;;;2.80;2.60;;;;;;;2.26;49.08;96939.09;5094140;28;20480;-58
2024/01/31 06:39:36;;;;;;;4.17;3.70;;;;;;;2.75;48.57;96930.75;5093944;28;20432;-58
2024/01/31 06:42:06;;;;;;;4.00;3.47;;;;;;;3.10;47.42;96940.47;5094088;28;20447;-58
2024/01/31 06:44:35;;;;;;;3.00;2.80;;;;;;;3.30;47.37;96927.59;5093649;28;20440;-58
2024/01/31 06:47:05;;;;;;;8.90;3.77;;;;;;;3.56;47.24;96941.81;5083381;28;20446;-57
2024/01/31 06:49:35;;;;;;;7.80;2.43;;;;;;;3.58;46.57;96883.94;5094292;28;20949;-56
2024/01/31 06:52:06;;;;;;;6.73;2.70;;;;;;;4.22;45.83;96943.25;5068350;28;20447;-59
2024/01/31 06:54:34;;;;;;;8.93;5.33;;;;;;;4.36;45.71;96941.53;5093167;28;20507;-59
2024/01/31 06:57:03;;;;;;;6.43;5.83;;;;;;;4.76;44.28;96911.91;5094229;28;20476;-60
2024/01/31 06:59:32;;;;;;;7.33;5.03;;;;;;;4.90;43.85;96932.00;5094474;28;20440;-58
2024/01/31 07:02:01;;;;;;;5.40;3.97;;;;;;;5.61;43.17;96935.94;5094288;28;20474;-59
2024/01/31 07:04:29;;;;;;;5.50;4.47;;;;;;;5.53;42.41;96937.91;5093685;28;20437;-58
2024/01/31 07:06:59;;;;;;;8.67;2.93;;;;;;;5.98;42.24;96934.59;5094074;28;20452;-58
2024/01/31 07:09:29;;;;;;;5.30;4.53;;;;;;;6.23;41.22;96935.63;5093635;28;20432;-57
2024/01/31 07:11:57;;;;;;;3.47;2.67;;;;;;;6.53;41.52;96932.59;5093406;28;20436;-57
2024/01/31 07:14:26;;;;;;;3.20;2.57;;;;;;;6.94;40.30;96935.75;5093882;28;20440;-56
2024/01/31 07:16:55;;;;;;;2.80;2.60;;;;;;;6.75;39.95;96889.19;5093896;28;20512;-58
2024/01/31 07:19:24;;;;;;;2.87;2.67;;;;;;;6.98;40.11;96911.41;5080274;28;20992;-57
2024/01/31 07:21:52;;;;;;;4.03;3.73;;;;;;;7.54;39.88;96924.75;5093702;28;20794;-57
2024/01/31 07:24:22;;;;;;;6.63;4.20;;;;;;;7.62;38.95;96916.59;5088841;28;20440;-57
2024/01/31 07:26:57;;;;;;;4.50;4.20;;;;;;;7.57;38.03;96865.47;5093973;28;20446;-58
2024/01/31 07:29:26;;;;;;;2.33;2.23;;;;;;;7.44;38.78;96921.78;5079132;28;20436;-59
2024/01/31 07:31:55;;;;;;;8.50;3.10;;;;;;;7.96;38.04;96912.75;5092329;28;20463;-59
2024/01/31 07:34:23;;;;;;;6.50;2.77;;;;;;;7.59;38.61;96914.38;5093354;28;21022;-61
2024/01/31 07:36:52;;;;;;;4.47;2.80;;;;;;;7.69;38.71;96922.66;5092909;28;20529;-60
2024/01/31 07:39:22;;;;;;;5.23;1.40;;;;;;;8.02;38.96;96921.66;5073734;28;20433;-60
2024/01/31 07:41:52;;;;;;;1.40;1.13;;;;;;;8.55;38.50;96907.00;5074031;28;20459;-60
2024/01/31 07:44:21;;;;;;;0.97;0.90;;;;;;;9.02;37.71;96913.47;5092925;28;20519;-60
2024/01/31 07:46:49;;;;;;;2.80;2.60;;;;;;;9.34;36.84;96911.44;5092899;28;20498;-58
2024/01/31 07:49:18;;;;;;;3.27;1.57;;;;;;;9.30;36.71;96910.28;5088235;28;20956;-58
2024/01/31 07:51:47;;;;;;;7.47;1.30;;;;;;;9.57;36.37;96899.16;5092249;28;20440;-58
2024/01/31 07:54:17;;;;;;;1.10;1.10;;;;;;;9.83;35.84;96900.63;5093003;28;20546;-57
2024/01/31 07:56:51;;;;;;;1.50;1.10;;;;;;;9.51;36.47;96899.25;5067082;28;21065;-57
2024/01/31 07:59:20;;;;;;;5.70;1.77;;;;;;;9.84;35.80;96896.94;5092274;28;20545;-56
2024/01/31 08:01:48;;;;;;;1.13;1.00;;;;;;;10.10;36.01;96893.09;5092695;28;20901;-56
2024/01/31 08:04:17;;;;;;;1.90;1.40;;;;;;;9.24;36.12;96896.09;5093098;28;20432;-56
2024/01/31 08:06:46;;;;;;;2.30;2.00;;;;;;;9.32;36.91;96897.66;5092340;28;20436;-57
2024/01/31 08:09:15;;;;;;;3.00;1.10;;;;;;;9.78;34.85;96883.78;5085696;28;20985;-58
2024/01/31 08:11:51;;;;;;;3.73;1.00;;;;;;;9.97;35.23;96896.75;5091658;28;20932;-60
2024/01/31 08:14:20;;;;;;;2.83;1.93;;;;;;;9.83;35.51;96889.22;5093042;28;20444;-60
2024/01/31 08:16:51;;;;;;;1.73;1.37;;;;;;;10.65;33.71;96878.53;5092211;28;20475;-61
2024/01/31 08:19:20;;;;;;;1.30;1.20;;;;;;;11.04;32.42;96886.78;5093210;28;20528;-63
2024/01/31 08:21:49;;;;;;;0.97;0.97;;;;;;;11.77;31.77;96881.63;5092441;28;20424;-63
2024/01/31 08:24:18;;;;;;;1.33;0.60;;;;;;;11.68;31.14;96886.53;5091944;28;20951;-63
2024/01/31 08:26:47;;;;;;;0.93;0.93;;;;;;;11.27;30.99;96886.75;5079840;28;20940;-62
2024/01/31 08:29:17;;;;;;;9.83;2.23;;;;;;;11.90;31.89;96866.22;5091923;28;20523;-60
2024/01/31 08:31:54;;;;;;;0.73;0.70;;;;;;;11.65;32.15;96880.84;5091929;28;20443;-61
2024/01/31 08:34:23;;;;;;;1.20;0.63;;;;;;;12.06;30.55;96875.25;5091688;28;20432;-58
2024/01/31 08:36:58;;;;;;;0.60;0.60;;;;;;;13.09;30.31;96874.69;5092149;28;20467;-60
2024/01/31 08:39:26;;;;;;;1.83;1.10;;;;;;;13.09;28.88;96864.03;5091578;28;20432;-60
2024/01/31 08:41:55;;;;;;;1.03;0.37;;;;;;;13.50;28.69;96858.16;5092016;28;20444;-60
2024/01/31 08:44:25;;;;;;;3.87;0.50;;;;;;;14.46;27.53;96845.72;5092335;28;20798;-60
2024/01/31 08:46:54;;;;;;;0.60;0.30;;;;;;;14.12;27.59;96860.34;5092328;28;20498;-57
2024/01/31 08:49:42;;;;;;;0.67;0.67;;;;;;;15.05;27.22;96865.81;5091745;28;21033;-57
2024/01/31 08:52:13;;;;;;;0.40;0.30;;;;;;;15.49;26.70;96857.50;5091288;28;20444;-59
2024/01/31 08:54:43;;;;;;;0.30;0.20;;;;;;;15.93;26.11;96828.47;5091160;28;21025;-59
2024/01/31 08:57:12;;;;;;;0.93;0.50;;;;;;;15.59;25.96;96841.50;5091252;28;20472;-59
2024/01/31 08:59:42;;;;;;;0.60;0.50;;;;;;;14.65;26.94;96824.78;5091857;28;20433;-59
2024/01/31 09:02:10;;;;;;;0.47;0.47;;;;;;;14.50;27.55;96822.78;5091493;28;20440;-60
2024/01/31 09:04:39;;;;;;;0.80;0.70;;;;;;;14.75;26.71;96825.63;5092166;28;20817;-58
2024/01/31 09:07:08;;;;;;;1.07;0.80;;;;;;;14.97;26.33;96788.09;5091639;28;20460;-58
2024/01/31 09:09:39;;;;;;;0.53;0.40;;;;;;;16.47;24.74;96776.00;5091403;28;20811;-59
2024/01/31 09:12:08;;;;;;;0.57;0.40;;;;;;;16.86;24.33;96808.34;5091475;28;20432;-58
2024/01/31 09:14:37;;;;;;;0.40;0.37;;;;;;;16.93;23.76;96801.63;5091432;28;20800;-58
2024/01/31 09:17:07;;;;;;;1.20;1.10;;;;;;;16.03;25.34;96802.53;5091560;28;20850;-57
2024/01/31 09:19:35;;;;;;;3.50;0.83;;;;;;;16.03;24.67;96799.06;5091063;28;20441;-56
2024/01/31 09:22:05;;;;;;;1.13;0.97;;;;;;;16.20;24.96;96796.91;5091543;28;20494;-55
2024/01/31 09:24:34;;;;;;;0.60;0.40;;;;;;;15.59;24.94;96747.94;5091122;28;20442;-55
2024/01/31 09:27:02;;;;;;;1.30;1.20;;;;;;;16.12;25.28;96770.69;5091610;28;20501;-56
2024/01/31 09:29:31;;;;;;;0.70;0.70;;;;;;;17.42;23.88;96768.72;5091067;28;20971;-56
2024/01/31 09:32:02;;;;;;;0.93;0.50;;;;;;;17.91;23.58;96764.13;5091653;28;20851;-56
2024/01/31 09:34:33;;;;;;;0.47;0.40;;;;;;;18.68;22.54;96749.75;5090512;28;20464;-56
2024/01/31 09:37:02;;;;;;;5.10;1.23;;;;;;;17.32;23.93;96753.50;5091343;28;20474;-56
2024/01/31 09:39:31;;;;;;;1.60;1.50;;;;;;;16.78;23.84;96752.66;5089854;28;20962;-56
2024/01/31 09:42:00;;;;;;;7.13;1.53;;;;;;;16.29;24.31;96742.56;5091161;28;20440;-56
2024/01/31 09:44:30;;;;;;;1.43;1.33;;;;;;;16.66;24.28;96744.94;5085675;28;20499;-56
2024/01/31 09:47:01;;;;;;;6.73;1.70;;;;;;;17.41;24.01;96721.53;5091322;28;20527;-56
2024/01/31 09:49:29;;;;;;;2.50;1.70;;;;;;;17.08;23.63;96715.03;5091533;28;20505;-55
2024/01/31 09:52:00;;;;;;;0.63;0.63;;;;;;;17.09;23.36;96714.78;5091328;28;20518;-56
2024/01/31 09:54:30;;;;;;;2.83;2.63;;;;;;;16.94;24.47;96708.69;5089972;28;20506;-55
2024/01/31 09:56:59;;;;;;;1.37;0.70;;;;;;;16.98;23.68;96705.16;5090995;28;20484;-55
2024/01/31 09:59:27;;;;;;;1.17;1.07;;;;;;;17.53;24.17;96696.00;5090967;28;20436;-56
2024/01/31 10:01:58;;;;;;;0.80;0.70;;;;;;;18.14;22.68;96668.69;5091329;28;20439;-56
2024/01/31 10:04:27;;;;;;;0.73;0.67;;;;;;;18.08;23.08;96686.72;5090683;28;20522;-55
2024/01/31 10:06:55;;;;;;;0.93;0.87;;;;;;;19.27;21.88;96673.22;5090639;28;20551;-55
2024/01/31 10:09:26;;;;;;;1.33;0.50;;;;;;;18.62;21.88;96677.59;5091792;28;20440;-55
2024/01/31 10:11:55;;;;;;;0.50;0.40;;;;;;;19.34;20.97;96662.91;5094516;28;20436;-56
2024/01/31 10:14:24;;;;;;;0.73;0.63;;;;;;;19.33;21.51;96661.28;5068627;28;20495;-55
2024/01/31 10:16:53;;;;;;;0.80;0.80;;;;;;;19.37;22.02;96651.59;5094223;28;20440;-56
2024/01/31 10:19:21;;;;;;;0.57;0.57;;;;;;;20.01;20.69;96640.03;5094467;28;20564;-56
2024/01/31 10:21:51;;;;;;;1.67;1.20;;;;;;;18.55;20.76;96631.47;5068926;28;20460;-55
2024/01/31 10:24:19;;;;;;;1.27;1.10;;;;;;;19.17;21.18;96643.78;5088490;28;20956;-55
2024/01/31 10:26:50;;;;;;;0.90;0.60;;;;;;;19.69;20.90;96624.72;5093902;28;20507;-57
2024/01/31 10:29:19;;;;;;;1.30;1.23;;;;;;;19.14;20.96;96639.00;5094131;28;20440;-56
2024/01/31 10:31:49;;;;;;;0.50;0.47;;;;;;;20.01;20.60;96605.81;5094560;28;20529;-56
2024/01/31 10:34:19;;;;;;;0.40;0.30;;;;;;;19.41;20.43;96606.88;5094030;28;20443;-55
2024/01/31 10:37:00;;;;;;;0.40;0.30;;;;;;;19.05;20.88;96608.50;5094098;28;20485;-55
2024/01/31 10:39:33;;;;;;;1.47;1.37;;;;;;;19.85;21.05;96601.84;5093917;28;20463;-55
2024/01/31 10:42:05;;;;;;;0.60;0.40;;;;;;;20.14;20.06;96599.66;5094160;28;20513;-56
2024/01/31 10:44:34;;;;;;;1.30;1.20;;;;;;;19.77;20.31;96589.06;5093897;28;20439;-55
2024/01/31 10:47:04;;;;;;;2.40;0.30;;;;;;;21.25;20.17;96553.41;5094024;28;20440;-56
2024/01/31 10:49:32;;;;;;;1.00;0.53;;;;;;;21.42;19.19;96586.69;5072290;28;20452;-54
2024/01/31 10:52:05;;;;;;;7.03;1.73;;;;;;;20.61;19.42;96576.13;5066735;28;20531;-56
2024/01/31 10:54:39;;;;;;;1.37;1.27;;;;;;;20.66;19.58;96501.41;5092798;28;20538;-55
2024/01/31 10:57:11;;;;;;;1.63;0.50;;;;;;;21.09;19.78;96569.16;5093667;28;20500;-56
2024/01/31 10:59:41;;;;;;;0.70;0.70;;;;;;;19.94;19.70;96550.78;5094225;28;20527;-54
2024/01/31 11:02:14;;;;;;;0.53;0.53;;;;;;;21.08;20.36;96553.28;5093473;28;20440;-55
2024/01/31 11:04:43;;;;;;;1.17;0.87;;;;;;;20.04;19.78;96555.97;5079965;28;20471;-55
2024/01/31 11:07:20;;;;;;;0.50;0.40;;;;;;;19.94;20.51;96551.59;5093731;28;20475;-54
2024/01/31 11:09:49;;;;;;;0.73;0.70;;;;;;;21.02;20.16;96544.50;5093641;28;20444;-54
2024/01/31 11:12:19;;;;;;;0.50;0.40;;;;;;;20.87;20.18;96545.63;5093394;28;20509;-57
2024/01/31 11:14:50;;;;;;;1.47;0.70;;;;;;;20.24;19.82;96507.94;5068455;28;20493;-56
2024/01/31 11:17:23;;;;;;;0.70;0.70;;;;;;;19.74;20.46;96514.31;5092087;28;20497;-55
2024/01/31 11:19:53;;;;;;;1.37;0.50;;;;;;;20.63;20.48;96518.16;5093621;28;20446;-55
2024/01/31 11:22:23;;;;;;;1.27;0.40;;;;;;;21.25;20.28;96523.75;5092356;28;20451;-55
2024/01/31 11:24:54;;;;;;;1.03;1.00;;;;;;;20.43;19.73;96507.03;5092825;28;20448;-56
2024/01/31 11:27:24;;;;;;;5.23;1.03;;;;;;;20.71;20.12;96512.06;5085884;28;20475;-56
2024/01/31 11:29:53;;;;;;;1.03;0.90;;;;;;;21.84;19.77;96520.56;5089985;28;20457;-57
2024/01/31 11:32:23;;;;;;;0.90;0.87;;;;;;;21.62;18.94;96465.88;5082638;28;20437;-56
2024/01/31 11:34:59;;;;;;;1.30;0.87;;;;;;;22.11;19.03;96492.59;5074119;28;20437;-57
2024/01/31 11:37:30;;;;;;;1.03;1.03;;;;;;;22.42;18.26;96492.47;5086533;28;20448;-56
2024/01/31 11:39:58;;;;;;;1.17;0.40;;;;;;;22.16;18.08;96468.16;5067160;28;20436;-56
2024/01/31 11:42:30;;;;;;;0.40;0.30;;;;;;;22.63;17.41;96482.69;5090791;28;20563;-57
2024/01/31 11:44:59;;;;;;;1.47;1.37;;;;;;;21.12;18.43;96441.03;5086073;28;20883;-57
2024/01/31 11:47:29;;;;;;;0.50;0.43;;;;;;;22.12;17.98;96476.06;5092840;28;20443;-57
2024/01/31 11:50:02;;;;;;;1.13;1.03;;;;;;;20.38;17.97;96455.97;5093012;28;20440;-57